Time;durP1;ratioP1;P1;durP2;ratioP2;P2;SDS_P1;SDS_P2;PMS_P1;PMS_P2;Temp;Humidity;BMP_temperature;BMP_pressure;BME280_temperature;BME280_humidity;BME280_pressure;Samples;Min_cycle;Max_cycle;Signal;HPM_P1;HPM_P2
2023/07/11 00:01:19;;;;;;;0.20;0.20;;;25.80;65.00;;;;;;5098576;28;20197;-87
2023/07/11 00:03:48;;;;;;;0.85;0.20;;;25.70;65.00;;;;;;5094427;28;20625;-88
2023/07/11 00:06:19;;;;;;;0.57;0.57;;;25.70;65.00;;;;;;5098644;28;20592;-87
2023/07/11 00:08:48;;;;;;;0.40;0.40;;;25.70;65.20;;;;;;5099041;28;20228;-88
2023/07/11 00:11:19;;;;;;;0.47;0.43;;;25.60;65.10;;;;;;5099742;28;20557;-86
2023/07/11 00:13:49;;;;;;;1.92;0.40;;;25.60;65.20;;;;;;5103160;27;20208;-85
2023/07/11 00:16:19;;;;;;;0.30;0.30;;;25.60;65.50;;;;;;5115046;27;20190;-87
2023/07/11 00:18:49;;;;;;;0.40;0.40;;;25.60;65.70;;;;;;5108974;27;20616;-85
2023/07/11 00:21:18;;;;;;;0.75;0.63;;;25.50;65.60;;;;;;5100266;28;20225;-88
2023/07/11 00:23:47;;;;;;;0.40;0.40;;;25.50;65.60;;;;;;5100570;27;20230;-85
2023/07/11 00:26:17;;;;;;;0.38;0.38;;;25.50;65.70;;;;;;5100029;27;20185;-87
2023/07/11 00:28:47;;;;;;;0.50;0.50;;;25.40;65.80;;;;;;5097952;27;20194;-87
2023/07/11 00:31:15;;;;;;;0.28;0.28;;;25.40;65.90;;;;;;5102646;28;20200;-88
2023/07/11 00:33:44;;;;;;;0.28;0.28;;;25.40;66.00;;;;;;5098359;27;20245;-86
2023/07/11 00:36:13;;;;;;;0.35;0.35;;;25.40;66.10;;;;;;5109161;27;20204;-87
2023/07/11 00:38:41;;;;;;;0.20;0.20;;;25.40;66.30;;;;;;5100784;27;20250;-86
2023/07/11 00:41:10;;;;;;;0.63;0.38;;;25.30;66.40;;;;;;5104580;27;20190;-86
2023/07/11 00:43:38;;;;;;;0.28;0.22;;;25.30;66.60;;;;;;5099681;27;20193;-85
2023/07/11 00:46:14;;;;;;;0.20;0.20;;;25.20;66.50;;;;;;5103198;27;20212;-86
2023/07/11 00:48:47;;;;;;;1.02;0.80;;;25.20;66.80;;;;;;5095204;28;20209;-87
2023/07/11 00:51:22;;;;;;;0.75;0.55;;;25.20;66.80;;;;;;5102084;28;20272;-86
2023/07/11 00:53:52;;;;;;;0.35;0.35;;;25.20;66.90;;;;;;5108872;27;20208;-86
2023/07/11 00:56:24;;;;;;;0.30;0.30;;;25.20;67.40;;;;;;5107927;27;20200;-86
2023/07/11 00:58:54;;;;;;;1.75;1.17;;;25.10;67.30;;;;;;5092170;27;20193;-85
2023/07/11 01:01:24;;;;;;;0.30;0.30;;;25.10;67.40;;;;;;5105639;27;20216;-87
2023/07/11 01:03:55;;;;;;;0.30;0.30;;;25.00;68.50;;;;;;5113463;27;20252;-86
2023/07/11 01:06:26;;;;;;;0.95;0.93;;;25.00;68.20;;;;;;5115276;27;20266;-87
2023/07/11 01:08:57;;;;;;;0.90;0.90;;;25.00;68.30;;;;;;5104699;27;20228;-84
2023/07/11 01:11:29;;;;;;;0.75;0.50;;;24.90;68.20;;;;;;5102303;27;20181;-86
2023/07/11 01:13:58;;;;;;;0.60;0.57;;;24.90;68.30;;;;;;5106661;27;20197;-85
2023/07/11 01:16:28;;;;;;;0.30;0.30;;;24.80;68.50;;;;;;5106264;27;20188;-86
2023/07/11 01:18:57;;;;;;;0.55;0.50;;;24.80;68.60;;;;;;5095047;27;20280;-86
2023/07/11 01:21:27;;;;;;;0.75;0.75;;;24.80;69.20;;;;;;5113998;27;20197;-85
2023/07/11 01:23:55;;;;;;;0.47;0.40;;;24.70;69.00;;;;;;5111408;27;20188;-84
2023/07/11 01:26:24;;;;;;;0.68;0.68;;;24.60;68.90;;;;;;5107919;27;20208;-87
2023/07/11 01:28:53;;;;;;;0.30;0.30;;;24.60;68.90;;;;;;5090569;27;20190;-87
2023/07/11 01:31:22;;;;;;;0.40;0.40;;;24.60;69.00;;;;;;5100977;27;20198;-85
2023/07/11 01:33:51;;;;;;;0.30;0.30;;;24.50;69.10;;;;;;5107461;27;20208;-84
2023/07/11 01:36:20;;;;;;;5.35;0.60;;;24.50;70.10;;;;;;5113250;27;20185;-86
2023/07/11 01:38:49;;;;;;;0.52;0.40;;;24.50;70.40;;;;;;5098242;27;20198;-85
2023/07/11 01:41:18;;;;;;;1.00;0.68;;;24.40;70.40;;;;;;5099590;27;20185;-88
2023/07/11 01:43:47;;;;;;;0.63;0.63;;;24.40;70.50;;;;;;5113367;27;20321;-84
2023/07/11 01:46:15;;;;;;;0.40;0.40;;;24.40;70.80;;;;;;5108382;28;20653;-86
2023/07/11 01:48:44;;;;;;;0.70;0.70;;;24.30;71.20;;;;;;5102522;27;20624;-85
2023/07/11 01:51:13;;;;;;;0.95;0.77;;;24.30;71.40;;;;;;5102666;27;20672;-87
2023/07/11 01:53:41;;;;;;;0.68;0.55;;;24.20;71.20;;;;;;5100028;27;20224;-86
2023/07/11 01:56:11;;;;;;;1.40;0.77;;;24.20;71.20;;;;;;5096398;27;20308;-87
2023/07/11 01:58:40;;;;;;;0.22;0.22;;;24.10;71.10;;;;;;5120044;27;20204;-86
2023/07/11 02:01:09;;;;;;;0.30;0.30;;;24.10;71.20;;;;;;5112088;27;20676;-86
2023/07/11 02:03:37;;;;;;;0.40;0.40;;;24.10;71.20;;;;;;5103913;27;20212;-84
2023/07/11 02:06:06;;;;;;;0.20;0.20;;;24.10;71.20;;;;;;5104183;27;20186;-87
2023/07/11 02:08:36;;;;;;;0.82;0.50;;;24.10;71.30;;;;;;5096908;28;20234;-86
2023/07/11 02:11:05;;;;;;;0.43;0.43;;;24.10;71.40;;;;;;5104813;27;20211;-87
2023/07/11 02:13:36;;;;;;;0.75;0.75;;;24.10;71.70;;;;;;5099184;27;20220;-86
2023/07/11 02:16:04;;;;;;;0.88;0.52;;;24.00;71.80;;;;;;5103091;27;20676;-86
2023/07/11 02:18:34;;;;;;;0.55;0.52;;;24.00;71.80;;;;;;5102219;27;20193;-87
2023/07/11 02:21:03;;;;;;;0.50;0.43;;;24.00;71.90;;;;;;5116142;27;20322;-87
2023/07/11 02:23:32;;;;;;;0.68;0.40;;;24.00;72.00;;;;;;5095376;28;20186;-85
2023/07/11 02:26:00;;;;;;;0.57;0.57;;;24.00;72.10;;;;;;5099639;28;20288;-85
2023/07/11 02:28:29;;;;;;;0.65;0.40;;;24.00;72.20;;;;;;5094993;27;20204;-85
2023/07/11 02:30:59;;;;;;;0.30;0.30;;;24.00;72.40;;;;;;5098836;27;20538;-85
2023/07/11 02:33:28;;;;;;;0.50;0.50;;;24.00;72.80;;;;;;5098131;28;20555;-86
2023/07/11 02:35:56;;;;;;;1.30;1.15;;;24.00;73.00;;;;;;5103860;28;20200;-85
2023/07/11 02:38:24;;;;;;;1.25;0.82;;;24.00;73.10;;;;;;5106060;27;20201;-86
2023/07/11 02:40:53;;;;;;;0.40;0.40;;;23.90;73.00;;;;;;5093633;27;20198;-88
2023/07/11 02:43:21;;;;;;;0.38;0.38;;;23.90;72.90;;;;;;5094930;27;20194;-86
2023/07/11 02:45:51;;;;;;;0.52;0.52;;;23.90;73.10;;;;;;5099010;27;20193;-85
2023/07/11 02:48:21;;;;;;;1.05;0.90;;;23.90;73.30;;;;;;5094346;28;20216;-86
2023/07/11 02:50:50;;;;;;;0.90;0.52;;;23.90;73.50;;;;;;5091474;28;20189;-85
2023/07/11 02:53:19;;;;;;;0.65;0.65;;;23.90;74.70;;;;;;5093362;27;20204;-86
2023/07/11 02:55:51;;;;;;;0.65;0.65;;;23.80;75.30;;;;;;5107599;27;20712;-87
2023/07/11 02:58:19;;;;;;;7.78;0.75;;;23.80;75.20;;;;;;5097785;28;20488;-87
2023/07/11 03:00:48;;;;;;;0.60;0.52;;;23.80;74.90;;;;;;5103122;28;20552;-87
2023/07/11 03:03:17;;;;;;;0.30;0.30;;;23.80;74.70;;;;;;5091582;27;20189;-86
2023/07/11 03:05:49;;;;;;;0.63;0.55;;;23.70;75.40;;;;;;5091839;27;20288;-87
2023/07/11 03:08:18;;;;;;;0.43;0.40;;;23.70;75.20;;;;;;5099874;27;20261;-85
2023/07/11 03:10:47;;;;;;;0.40;0.40;;;23.70;75.30;;;;;;5102893;27;20200;-85
2023/07/11 03:13:17;;;;;;;1.05;0.70;;;23.80;75.00;;;;;;5093150;27;20186;-84
2023/07/11 03:15:46;;;;;;;1.45;1.15;;;23.70;75.20;;;;;;5099402;27;20761;-85
2023/07/11 03:18:15;;;;;;;0.20;0.20;;;23.70;75.80;;;;;;5096043;28;20562;-86
2023/07/11 03:20:43;;;;;;;0.75;0.60;;;23.70;76.10;;;;;;5109383;27;20558;-86
2023/07/11 03:23:15;;;;;;;0.80;0.73;;;23.70;75.90;;;;;;5099737;27;20196;-85
2023/07/11 03:25:44;;;;;;;0.40;0.40;;;23.70;76.10;;;;;;5110782;27;20224;-85
2023/07/11 03:28:13;;;;;;;0.43;0.43;;;23.80;76.20;;;;;;5104269;27;20196;-85
2023/07/11 03:30:45;;;;;;;0.43;0.43;;;23.70;76.10;;;;;;5085030;28;21176;-86
2023/07/11 03:33:13;;;;;;;1.38;0.52;;;23.80;76.20;;;;;;5107694;27;20556;-86
2023/07/11 03:35:42;;;;;;;0.73;0.73;;;23.80;76.10;;;;;;5108484;28;20285;-86
2023/07/11 03:38:13;;;;;;;0.47;0.47;;;23.80;76.00;;;;;;5101011;28;20274;-87
2023/07/11 03:40:42;;;;;;;0.55;0.50;;;23.80;76.00;;;;;;5106390;28;20753;-87
2023/07/11 03:43:10;;;;;;;0.77;0.68;;;23.80;75.80;;;;;;5110378;27;20226;-86
2023/07/11 03:45:42;;;;;;;0.68;0.68;;;23.80;76.30;;;;;;5093249;27;20201;-85
2023/07/11 03:48:10;;;;;;;1.33;0.65;;;23.80;76.50;;;;;;5104590;28;20469;-87
2023/07/11 03:50:39;;;;;;;0.93;0.60;;;23.80;76.60;;;;;;5105881;27;20197;-87
2023/07/11 03:53:08;;;;;;;0.88;0.85;;;23.80;76.40;;;;;;5105469;27;20652;-84
2023/07/11 03:55:38;;;;;;;0.82;0.45;;;23.90;76.20;;;;;;5101682;27;20236;-85
2023/07/11 03:58:07;;;;;;;0.40;0.40;;;23.90;76.10;;;;;;5104844;27;20192;-86
2023/07/11 04:00:36;;;;;;;2.08;0.65;;;23.90;75.90;;;;;;5109442;27;20205;-86
2023/07/11 04:03:05;;;;;;;0.30;0.30;;;23.90;75.80;;;;;;5107214;27;20197;-88
2023/07/11 04:05:34;;;;;;;2.35;1.52;;;23.90;75.80;;;;;;5098964;27;20772;-85
2023/07/11 04:08:03;;;;;;;0.40;0.40;;;23.90;75.80;;;;;;5103455;27;20224;-86
2023/07/11 04:10:33;;;;;;;0.70;0.65;;;24.00;75.80;;;;;;5101460;27;20197;-86
2023/07/11 04:16:58;;;;;;;1.25;0.85;;;24.00;75.90;;;;;;5096257;28;20270;-87
2023/07/11 04:19:32;;;;;;;0.57;0.57;;;24.10;76.10;;;;;;5095853;28;20548;-82
2023/07/11 04:22:00;;;;;;;0.47;0.45;;;24.10;76.20;;;;;;5098922;27;20550;-86
2023/07/11 04:25:10;;;;;;;0.40;0.40;;;24.10;76.00;;;;;;5108607;27;20565;-87
2023/07/11 04:28:18;;;;;;;1.15;0.95;;;24.10;75.80;;;;;;5099578;27;20200;-84
2023/07/11 04:30:50;;;;;;;1.33;0.82;;;24.10;76.00;;;;;;5109248;27;20540;-86
2023/07/11 04:33:20;;;;;;;0.45;0.38;;;24.10;76.00;;;;;;5107959;27;20209;-86
2023/07/11 04:35:50;;;;;;;0.70;0.68;;;24.20;75.80;;;;;;5103429;27;20270;-85
2023/07/11 04:38:25;;;;;;;0.30;0.30;;;24.20;75.70;;;;;;5100736;28;20217;-85
2023/07/11 04:40:56;;;;;;;0.40;0.35;;;24.20;75.60;;;;;;5100718;27;20189;-85
2023/07/11 04:43:26;;;;;;;0.65;0.50;;;24.30;75.60;;;;;;5097967;27;20200;-85
2023/07/11 04:45:56;;;;;;;0.55;0.40;;;24.30;75.50;;;;;;5108841;27;20193;-84
2023/07/11 04:48:26;;;;;;;1.27;1.15;;;24.30;75.70;;;;;;5104889;27;20579;-87
2023/07/11 04:50:57;;;;;;;1.90;0.40;;;24.40;75.70;;;;;;5096969;27;20204;-86
2023/07/11 04:53:28;;;;;;;2.50;0.77;;;24.40;75.80;;;;;;5104657;27;20531;-85
2023/07/11 04:55:57;;;;;;;0.55;0.55;;;24.50;75.50;;;;;;5096972;28;20210;-87
2023/07/11 04:58:28;;;;;;;0.45;0.45;;;24.50;75.30;;;;;;5101687;27;20196;-85
2023/07/11 05:01:00;;;;;;;0.60;0.60;;;24.60;75.40;;;;;;5098449;27;22137;-85
2023/07/11 05:03:30;;;;;;;0.80;0.80;;;24.60;75.20;;;;;;5091850;28;20207;-85
2023/07/11 05:05:59;;;;;;;0.82;0.75;;;24.70;75.80;;;;;;5098020;27;20615;-84
2023/07/11 05:08:28;;;;;;;0.82;0.50;;;24.70;75.90;;;;;;5103879;27;20252;-85
2023/07/11 05:11:02;;;;;;;0.40;0.40;;;24.70;75.70;;;;;;5099919;27;20197;-88
2023/07/11 05:13:31;;;;;;;0.68;0.50;;;24.80;75.70;;;;;;5105538;27;20189;-86
2023/07/11 05:16:00;;;;;;;0.40;0.40;;;24.80;75.70;;;;;;5094064;28;20229;-88
2023/07/11 05:18:31;;;;;;;0.95;0.70;;;24.90;75.60;;;;;;5095195;28;20198;-87
2023/07/11 05:21:00;;;;;;;0.50;0.40;;;24.90;75.40;;;;;;5104339;27;20196;-88
2023/07/11 05:23:30;;;;;;;0.75;0.60;;;25.00;75.20;;;;;;5099124;27;20568;-87
2023/07/11 05:25:59;;;;;;;0.30;0.30;;;25.00;75.10;;;;;;5104714;27;20256;-87
2023/07/11 05:28:29;;;;;;;0.98;0.68;;;25.10;75.30;;;;;;5100335;27;22425;-88
2023/07/11 05:31:00;;;;;;;0.50;0.50;;;25.20;75.50;;;;;;5095102;27;20418;-88
2023/07/11 05:33:30;;;;;;;1.05;0.95;;;25.20;75.50;;;;;;5103393;27;20239;-88
2023/07/11 05:36:31;;;;;;;0.43;0.40;;;25.30;75.80;;;;;;5102215;27;20316;-85
2023/07/11 05:39:02;;;;;;;0.77;0.77;;;25.30;75.60;;;;;;5107945;27;20197;-87
2023/07/11 05:41:35;;;;;;;2.15;1.08;;;25.40;75.40;;;;;;5100495;27;20220;-86
2023/07/11 05:44:04;;;;;;;0.50;0.50;;;25.40;75.20;;;;;;5099970;27;20193;-88
2023/07/11 05:46:37;;;;;;;2.45;0.88;;;25.50;75.20;;;;;;5105848;27;20194;-88
2023/07/11 05:49:08;;;;;;;2.30;0.77;;;25.60;75.00;;;;;;5109032;27;20270;-88
2023/07/11 05:51:37;;;;;;;0.35;0.35;;;25.60;74.90;;;;;;5093169;28;20207;-87
2023/07/11 05:54:05;;;;;;;0.95;0.88;;;25.70;74.80;;;;;;5104661;27;20193;-87
2023/07/11 05:56:37;;;;;;;0.47;0.47;;;25.70;74.70;;;;;;5100592;27;20224;-88
2023/07/11 05:59:06;;;;;;;1.42;0.98;;;25.80;74.70;;;;;;5098235;27;20774;-88
2023/07/11 06:01:35;;;;;;;3.25;1.58;;;25.80;74.90;;;;;;5112509;27;20197;-86
2023/07/11 06:04:09;;;;;;;0.40;0.40;;;25.90;74.80;;;;;;5108051;27;20197;-86
2023/07/11 06:06:42;;;;;;;0.98;0.80;;;25.90;74.70;;;;;;5095955;27;20193;-85
2023/07/11 06:09:13;;;;;;;0.70;0.70;;;26.00;74.60;;;;;;5102206;27;20221;-88
2023/07/11 06:11:42;;;;;;;1.13;0.60;;;26.10;74.50;;;;;;5101899;27;20587;-89
2023/07/11 06:14:12;;;;;;;0.40;0.40;;;26.10;74.50;;;;;;5098985;27;20194;-84
2023/07/11 06:16:41;;;;;;;0.73;0.60;;;26.20;74.50;;;;;;5094507;28;20271;-83
2023/07/11 06:19:12;;;;;;;0.30;0.30;;;26.20;74.20;;;;;;5092564;28;20194;-87
2023/07/11 06:21:42;;;;;;;0.88;0.70;;;26.20;74.10;;;;;;5096689;28;20197;-85
2023/07/11 06:24:10;;;;;;;5.15;0.85;;;26.30;74.20;;;;;;5091401;28;20198;-86
2023/07/11 06:26:39;;;;;;;0.30;0.30;;;26.40;74.10;;;;;;5091894;28;20193;-85
2023/07/11 06:29:07;;;;;;;1.98;1.23;;;26.40;73.80;;;;;;5093778;28;20646;-86
2023/07/11 06:31:36;;;;;;;0.73;0.73;;;26.40;73.90;;;;;;5101260;28;20201;-84
2023/07/11 06:34:04;;;;;;;1.70;0.80;;;26.50;73.60;;;;;;5093589;28;20226;-85
2023/07/11 06:36:35;;;;;;;0.30;0.30;;;26.50;73.60;;;;;;5091934;28;20252;-85
2023/07/11 06:39:04;;;;;;;1.38;1.05;;;26.60;73.60;;;;;;5094588;28;20268;-86
2023/07/11 06:41:32;;;;;;;0.80;0.68;;;26.70;73.60;;;;;;5112379;28;20199;-86
2023/07/11 06:44:00;;;;;;;6.65;1.35;;;26.70;73.20;;;;;;5096202;28;20207;-86
2023/07/11 06:46:29;;;;;;;2.60;1.92;;;26.70;72.90;;;;;;5111931;28;20193;-84
2023/07/11 06:48:59;;;;;;;1.38;0.88;;;26.80;72.60;;;;;;5091179;28;20216;-86
2023/07/11 06:51:28;;;;;;;0.68;0.68;;;26.80;72.60;;;;;;5090548;28;20198;-86
2023/07/11 06:53:59;;;;;;;0.68;0.68;;;26.90;72.70;;;;;;5091539;28;20225;-87
2023/07/11 06:56:28;;;;;;;1.35;0.43;;;27.00;72.50;;;;;;5090449;28;20210;-85
2023/07/11 06:58:56;;;;;;;2.55;0.60;;;27.00;72.30;;;;;;5102626;28;20205;-86
2023/07/11 07:01:26;;;;;;;0.85;0.63;;;27.10;72.10;;;;;;5091340;28;20205;-87
2023/07/11 07:04:05;;;;;;;1.10;0.77;;;27.20;71.90;;;;;;5109641;28;20277;-86
2023/07/11 07:06:35;;;;;;;10.00;1.70;;;27.20;71.70;;;;;;5110632;27;20558;-84
2023/07/11 07:09:06;;;;;;;1.20;0.45;;;27.30;71.80;;;;;;5105802;28;20236;-86
2023/07/11 07:11:36;;;;;;;1.02;0.60;;;27.40;71.60;;;;;;5089933;28;20188;-84
2023/07/11 07:14:10;;;;;;;0.20;0.20;;;27.40;71.30;;;;;;5099964;28;20280;-85
2023/07/11 07:16:40;;;;;;;0.70;0.50;;;27.50;71.30;;;;;;5094245;28;20636;-84
2023/07/11 07:19:11;;;;;;;0.60;0.47;;;27.50;71.30;;;;;;5090539;28;20189;-84
2023/07/11 07:21:40;;;;;;;2.38;1.02;;;27.60;71.20;;;;;;5091448;28;20612;-85
2023/07/11 07:24:10;;;;;;;1.92;1.05;;;27.70;71.10;;;;;;5089764;28;20642;-87
2023/07/11 07:26:39;;;;;;;0.55;0.45;;;27.70;70.90;;;;;;5091273;28;20208;-84
2023/07/11 07:29:07;;;;;;;0.65;0.43;;;27.80;70.70;;;;;;5092950;28;20194;-86
2023/07/11 07:31:36;;;;;;;1.23;0.73;;;27.80;70.10;;;;;;5110783;28;20189;-84
2023/07/11 07:34:04;;;;;;;0.68;0.52;;;27.90;69.90;;;;;;5091369;28;20190;-83
2023/07/11 07:36:33;;;;;;;1.15;0.93;;;27.90;69.70;;;;;;5091910;28;20614;-85
2023/07/11 07:39:01;;;;;;;0.40;0.40;;;28.00;69.80;;;;;;5089490;28;20734;-86
2023/07/11 07:41:32;;;;;;;1.17;0.30;;;28.00;69.50;;;;;;5090661;28;20198;-86
2023/07/11 07:44:01;;;;;;;0.32;0.32;;;28.10;69.20;;;;;;5099445;28;21014;-85
2023/07/11 07:46:29;;;;;;;0.60;0.60;;;28.10;68.80;;;;;;5090840;28;20595;-86
2023/07/11 07:48:58;;;;;;;0.73;0.32;;;28.10;68.10;;;;;;5108253;28;20189;-86
2023/07/11 07:51:27;;;;;;;1.05;0.80;;;28.20;68.40;;;;;;5110967;28;20203;-85
2023/07/11 07:53:55;;;;;;;0.85;0.63;;;28.20;68.20;;;;;;5090489;28;20200;-87
2023/07/11 07:56:24;;;;;;;0.47;0.40;;;28.30;67.70;;;;;;5091373;28;20990;-85
2023/07/11 07:58:54;;;;;;;1.02;0.95;;;28.20;66.60;;;;;;5102671;28;20272;-86
2023/07/11 08:01:23;;;;;;;0.52;0.40;;;28.30;65.80;;;;;;5111171;28;20189;-85
2023/07/11 08:03:51;;;;;;;1.08;0.95;;;28.40;66.40;;;;;;5090859;28;20288;-85
2023/07/11 08:06:20;;;;;;;0.60;0.60;;;28.40;66.70;;;;;;5108984;28;20204;-87
2023/07/11 08:08:49;;;;;;;1.33;1.15;;;28.50;66.80;;;;;;5107354;28;20315;-86
2023/07/11 08:11:20;;;;;;;0.63;0.55;;;28.60;66.90;;;;;;5090132;28;20201;-86
2023/07/11 08:13:49;;;;;;;0.55;0.55;;;28.60;66.80;;;;;;5105001;28;20189;-86
2023/07/11 08:16:29;;;;;;;1.23;0.70;;;28.60;66.60;;;;;;5105347;28;20191;-87
2023/07/11 08:19:04;;;;;;;1.25;1.08;;;28.70;66.20;;;;;;5090732;28;20221;-86
2023/07/11 08:21:34;;;;;;;1.30;1.23;;;28.80;66.10;;;;;;5087746;28;20273;-85
2023/07/11 08:24:04;;;;;;;1.95;0.73;;;28.80;65.80;;;;;;5090795;28;20198;-86
2023/07/11 08:26:33;;;;;;;0.77;0.68;;;28.80;65.30;;;;;;5089891;28;20194;-85
2023/07/11 08:29:02;;;;;;;1.02;0.73;;;28.80;65.30;;;;;;5103920;28;20568;-84
2023/07/11 08:31:49;;;;;;;1.88;1.35;;;28.90;65.00;;;;;;5105484;28;20895;-86
2023/07/11 08:34:17;;;;;;;0.40;0.40;;;28.90;64.90;;;;;;5106339;28;20983;-86
2023/07/11 08:36:47;;;;;;;1.88;1.77;;;29.00;65.20;;;;;;5092825;28;20197;-84
2023/07/11 08:39:15;;;;;;;2.10;1.08;;;29.00;64.40;;;;;;5110475;28;20208;-85
2023/07/11 08:41:46;;;;;;;2.58;0.88;;;29.00;63.90;;;;;;5094530;28;21494;-84
2023/07/11 08:44:19;;;;;;;2.33;1.15;;;29.10;64.20;;;;;;5094000;28;20689;-86
2023/07/11 08:46:58;;;;;;;0.70;0.70;;;29.20;64.70;;;;;;5093550;28;20276;-83
2023/07/11 08:49:33;;;;;;;0.60;0.60;;;29.20;64.10;;;;;;5092970;28;20182;-85
2023/07/11 08:52:04;;;;;;;0.70;0.63;;;29.30;64.70;;;;;;5094318;28;20195;-86
2023/07/11 08:54:38;;;;;;;0.63;0.57;;;29.30;64.00;;;;;;5093316;28;20186;-86
2023/07/11 08:57:11;;;;;;;1.45;1.25;;;29.40;64.20;;;;;;5094460;28;20655;-86
2023/07/11 08:59:49;;;;;;;0.63;0.63;;;29.40;63.80;;;;;;5111410;28;20247;-86
2023/07/11 09:02:33;;;;;;;0.35;0.28;;;29.50;63.40;;;;;;5105523;28;20198;-85
2023/07/11 09:05:05;;;;;;;0.90;0.63;;;29.50;62.60;;;;;;5100897;28;20190;-85
2023/07/11 09:07:38;;;;;;;1.80;1.40;;;29.60;62.70;;;;;;5093927;28;20217;-87
2023/07/11 09:10:28;;;;;;;0.77;0.50;;;29.60;62.40;;;;;;5093407;28;20212;-87
2023/07/11 09:13:40;;;;;;;0.43;0.40;;;29.70;62.60;;;;;;5094161;28;20280;-86
2023/07/11 09:16:23;;;;;;;0.52;0.52;;;29.70;62.90;;;;;;5094250;28;20189;-86
2023/07/11 09:19:01;;;;;;;0.77;0.65;;;29.80;62.80;;;;;;5109771;28;20577;-88
2023/07/11 09:21:44;;;;;;;1.42;1.02;;;29.90;63.20;;;;;;5113753;28;20591;-87
2023/07/11 09:24:31;;;;;;;1.17;0.82;;;29.90;62.30;;;;;;5091672;28;20201;-84
2023/07/11 09:27:06;;;;;;;1.20;1.15;;;30.00;62.70;;;;;;5093213;28;20681;-86
2023/07/11 09:29:35;;;;;;;5.75;1.95;;;30.00;62.20;;;;;;5093628;28;20250;-85
2023/07/11 09:32:05;;;;;;;0.80;0.80;;;30.10;62.10;;;;;;5093098;28;20441;-86
2023/07/11 09:34:36;;;;;;;0.40;0.40;;;30.20;62.20;;;;;;5093014;28;20190;-85
2023/07/11 09:37:15;;;;;;;1.20;0.50;;;30.30;62.20;;;;;;5094123;28;20205;-87
2023/07/11 09:39:50;;;;;;;1.83;0.55;;;30.30;62.50;;;;;;5092904;28;20200;-87
2023/07/11 09:42:30;;;;;;;1.17;0.93;;;30.40;62.40;;;;;;5091697;28;20185;-86
2023/07/11 09:45:00;;;;;;;1.42;1.00;;;30.60;61.90;;;;;;5100326;28;20191;-86
2023/07/11 09:47:32;;;;;;;1.05;0.90;;;30.60;61.60;;;;;;5105698;28;20233;-86
2023/07/11 09:50:17;;;;;;;0.85;0.60;;;30.60;61.50;;;;;;5093391;28;20231;-87
2023/07/11 09:53:03;;;;;;;1.10;0.98;;;30.70;60.80;;;;;;5103192;28;20238;-86
2023/07/11 09:55:36;;;;;;;1.10;0.73;;;30.70;60.60;;;;;;5107501;28;20272;-85
2023/07/11 09:58:04;;;;;;;0.68;0.57;;;30.70;59.70;;;;;;5100628;28;20701;-87
2023/07/11 10:00:33;;;;;;;0.93;0.70;;;30.70;59.80;;;;;;5094445;28;20651;-87
2023/07/11 10:03:01;;;;;;;0.75;0.70;;;30.80;59.80;;;;;;5098960;28;20264;-86
2023/07/11 10:05:32;;;;;;;2.38;0.63;;;30.80;59.60;;;;;;5098576;28;20284;-86
2023/07/11 10:08:02;;;;;;;0.80;0.70;;;31.00;59.20;;;;;;5092622;28;20237;-86
2023/07/11 10:10:30;;;;;;;0.65;0.50;;;31.10;58.90;;;;;;5094286;28;20186;-89
2023/07/11 10:13:09;;;;;;;0.95;0.70;;;31.10;58.40;;;;;;5102174;27;20192;-89
2023/07/11 10:15:55;;;;;;;1.65;0.95;;;31.20;58.00;;;;;;5114041;27;20262;-87
2023/07/11 10:18:25;;;;;;;0.70;0.70;;;31.30;58.20;;;;;;5093044;28;20229;-84
2023/07/11 10:21:02;;;;;;;1.73;0.77;;;31.30;58.10;;;;;;5107763;27;20198;-84
2023/07/11 10:23:36;;;;;;;0.40;0.40;;;31.40;57.90;;;;;;5109509;27;20657;-89
2023/07/11 10:26:18;;;;;;;0.73;0.70;;;31.50;58.10;;;;;;5096382;27;20190;-85
2023/07/11 10:29:00;;;;;;;0.85;0.80;;;31.60;58.40;;;;;;5097746;28;20250;-86
2023/07/11 10:31:49;;;;;;;2.42;1.08;;;31.70;58.20;;;;;;5098709;27;20271;-85
2023/07/11 10:34:25;;;;;;;0.77;0.60;;;31.80;58.50;;;;;;5106280;27;20284;-87
2023/07/11 10:37:05;;;;;;;1.95;0.50;;;31.80;58.40;;;;;;5096218;28;20201;-87
2023/07/11 10:39:42;;;;;;;0.75;0.70;;;31.80;58.40;;;;;;5097581;27;20563;-87
2023/07/11 10:42:26;;;;;;;1.38;0.70;;;31.90;58.20;;;;;;5098421;27;20194;-86
2023/07/11 10:45:03;;;;;;;0.60;0.60;;;31.90;58.00;;;;;;5099421;28;20193;-86
2023/07/11 10:47:37;;;;;;;1.08;0.95;;;31.90;58.00;;;;;;5097600;27;20220;-88
2023/07/11 10:50:18;;;;;;;0.40;0.35;;;32.00;58.10;;;;;;5095570;27;20253;-86
2023/07/11 10:52:53;;;;;;;0.68;0.68;;;32.00;57.80;;;;;;5093578;28;20193;-88
2023/07/11 10:55:25;;;;;;;1.20;0.95;;;32.10;57.10;;;;;;5105372;27;20195;-83
2023/07/11 10:57:56;;;;;;;1.35;1.00;;;32.20;56.60;;;;;;5105765;27;20200;-85
2023/07/11 11:00:32;;;;;;;0.50;0.50;;;32.30;57.10;;;;;;5094851;27;20541;-86
2023/07/11 11:03:12;;;;;;;0.63;0.60;;;32.40;56.80;;;;;;5095527;27;20200;-86
2023/07/11 11:05:49;;;;;;;0.82;0.50;;;32.50;56.90;;;;;;5095974;28;20204;-87
2023/07/11 11:08:27;;;;;;;0.93;0.60;;;32.50;56.50;;;;;;5095145;28;20717;-84
2023/07/11 11:11:03;;;;;;;2.70;1.48;;;32.60;56.90;;;;;;5095326;27;20194;-86
2023/07/11 11:13:39;;;;;;;1.30;0.77;;;32.60;56.80;;;;;;5088771;28;20188;-86
2023/07/11 11:16:17;;;;;;;1.30;1.02;;;32.70;56.70;;;;;;5105491;27;20191;-88
2023/07/11 11:18:58;;;;;;;0.65;0.65;;;32.70;55.90;;;;;;5091181;28;20213;-84
2023/07/11 11:21:33;;;;;;;0.77;0.75;;;32.80;56.20;;;;;;5099444;27;20720;-86
2023/07/11 11:24:36;;;;;;;1.05;0.60;;;33.00;56.30;;;;;;5093374;27;20216;-83
2023/07/11 11:27:14;;;;;;;1.42;1.05;;;33.00;55.70;;;;;;5101680;27;20237;-86
2023/07/11 11:29:58;;;;;;;2.95;0.80;;;33.10;55.30;;;;;;5094884;27;20272;-86
2023/07/11 11:32:31;;;;;;;0.70;0.60;;;33.10;55.40;;;;;;5098964;28;20193;-86
2023/07/11 11:35:22;;;;;;;0.60;0.55;;;33.20;55.20;;;;;;5103211;27;20286;-86
2023/07/11 11:38:16;;;;;;;0.93;0.80;;;33.20;55.20;;;;;;5092310;28;20197;-87
2023/07/11 11:40:53;;;;;;;0.90;0.80;;;33.20;55.30;;;;;;5092486;28;21237;-86
2023/07/11 11:43:25;;;;;;;1.48;0.85;;;33.20;55.20;;;;;;5093512;28;20275;-86
2023/07/11 11:46:03;;;;;;;1.48;1.20;;;33.30;54.90;;;;;;5110183;27;20205;-81
2023/07/11 11:48:36;;;;;;;1.85;0.60;;;33.30;54.70;;;;;;5097383;28;20276;-83
2023/07/11 11:51:11;;;;;;;0.50;0.50;;;33.40;54.70;;;;;;5108073;28;21993;-84
2023/07/11 11:53:45;;;;;;;3.20;1.38;;;33.50;54.80;;;;;;5091356;28;20596;-88
2023/07/11 11:56:17;;;;;;;0.73;0.73;;;33.50;54.30;;;;;;5093599;28;20227;-88
2023/07/11 11:58:58;;;;;;;2.05;1.42;;;33.60;53.60;;;;;;5092955;28;20698;-88
2023/07/11 12:01:34;;;;;;;2.58;1.02;;;33.60;51.80;;;;;;5100832;28;20180;-88
2023/07/11 12:04:33;;;;;;;1.30;0.77;;;33.60;52.20;;;;;;5092788;28;20469;-90
2023/07/11 12:07:07;;;;;;;1.75;1.50;;;33.60;51.70;;;;;;5101889;28;20276;-88
2023/07/11 12:09:41;;;;;;;2.58;0.98;;;33.60;50.50;;;;;;5102741;27;20216;-91
2023/07/11 12:12:12;;;;;;;1.00;0.90;;;33.60;50.30;;;;;;5098384;28;20218;-90
2023/07/11 12:14:45;;;;;;;1.27;0.80;;;33.60;50.70;;;;;;5098719;27;20193;-88
2023/07/11 12:17:45;;;;;;;2.08;1.52;;;33.70;50.70;;;;;;5105581;27;20192;-89
2023/07/11 12:20:21;;;;;;;2.10;1.15;;;33.70;50.80;;;;;;5099660;28;20285;-89
2023/07/11 12:23:17;;;;;;;1.13;0.88;;;33.70;50.80;;;;;;5096276;28;20189;-85
2023/07/11 12:26:15;;;;;;;0.40;0.30;;;33.70;51.00;;;;;;5107036;28;20196;-89
2023/07/11 12:28:48;;;;;;;0.50;0.50;;;33.70;50.80;;;;;;5107148;27;20637;-88
2023/07/11 12:31:20;;;;;;;2.30;0.88;;;33.60;50.80;;;;;;5098930;27;20200;-90
2023/07/11 12:34:02;;;;;;;0.77;0.77;;;33.60;51.20;;;;;;5102948;27;20220;-88
2023/07/11 12:36:59;;;;;;;1.75;1.20;;;33.50;51.40;;;;;;5097804;28;20595;-86
2023/07/11 12:39:49;;;;;;;1.33;0.75;;;33.40;51.40;;;;;;5094814;28;20235;-88
2023/07/11 12:42:40;;;;;;;3.67;0.95;;;33.40;51.30;;;;;;5104597;27;20273;-87
2023/07/11 12:45:15;;;;;;;0.80;0.60;;;33.40;51.70;;;;;;5094759;28;20638;-89
2023/07/11 12:47:46;;;;;;;2.10;1.30;;;33.30;51.80;;;;;;5100239;28;20643;-89
2023/07/11 12:50:22;;;;;;;0.63;0.63;;;33.20;52.00;;;;;;5097620;27;20189;-89
2023/07/11 12:53:01;;;;;;;0.35;0.35;;;33.20;52.10;;;;;;5112796;27;20196;-87
2023/07/11 12:55:30;;;;;;;0.75;0.68;;;33.10;52.20;;;;;;5101682;28;20207;-87
2023/07/11 12:57:59;;;;;;;0.70;0.32;;;33.00;52.30;;;;;;5099487;28;20259;-88
2023/07/11 13:00:32;;;;;;;0.75;0.55;;;33.00;52.30;;;;;;5107671;28;20758;-90
2023/07/11 13:03:18;;;;;;;0.50;0.50;;;33.00;52.50;;;;;;5100342;27;20561;-89
2023/07/11 13:05:49;;;;;;;1.15;0.82;;;32.90;52.60;;;;;;5094001;28;20212;-89
2023/07/11 13:08:18;;;;;;;1.92;0.65;;;32.90;52.60;;;;;;5095847;28;20257;-90
2023/07/11 13:10:49;;;;;;;0.80;0.65;;;32.80;52.80;;;;;;5105641;28;20559;-89
2023/07/11 13:13:18;;;;;;;0.40;0.38;;;32.80;53.00;;;;;;5112799;27;20576;-89
2023/07/11 13:15:48;;;;;;;0.35;0.35;;;32.70;53.10;;;;;;5101924;28;20573;-89
2023/07/11 13:18:30;;;;;;;1.27;0.75;;;32.70;53.40;;;;;;5102543;28;20196;-90
2023/07/11 13:21:00;;;;;;;2.75;0.80;;;32.70;53.60;;;;;;5097249;27;20290;-90